sensor_id;sensor_type;location;lat;lon;timestamp;temperature;humidity
74946;HTU21D;63509;45.250;38.102;2023-04-03T00:01:20;9.97;58.77
74946;HTU21D;63509;45.250;38.102;2023-04-03T00:03:47;9.96;58.99
74946;HTU21D;63509;45.250;38.102;2023-04-03T00:06:13;9.95;59.09
74946;HTU21D;63509;45.250;38.102;2023-04-03T00:08:40;9.95;59.17
74946;HTU21D;63509;45.250;38.102;2023-04-03T00:11:06;9.98;59.35
74946;HTU21D;63509;45.250;38.102;2023-04-03T00:13:32;9.99;59.43
74946;HTU21D;63509;45.250;38.102;2023-04-03T00:15:59;10.00;59.55
74946;HTU21D;63509;45.250;38.102;2023-04-03T00:18:25;10.04;59.64
74946;HTU21D;63509;45.250;38.102;2023-04-03T00:20:51;10.06;59.77
74946;HTU21D;63509;45.250;38.102;2023-04-03T00:23:17;10.08;59.86
74946;HTU21D;63509;45.250;38.102;2023-04-03T00:25:43;10.11;59.96
74946;HTU21D;63509;45.250;38.102;2023-04-03T00:28:09;10.13;60.07
74946;HTU21D;63509;45.250;38.102;2023-04-03T00:30:36;10.14;60.21
74946;HTU21D;63509;45.250;38.102;2023-04-03T00:33:02;10.16;60.28
74946;HTU21D;63509;45.250;38.102;2023-04-03T00:35:28;10.19;60.42
74946;HTU21D;63509;45.250;38.102;2023-04-03T00:37:55;10.20;60.49
74946;HTU21D;63509;45.250;38.102;2023-04-03T00:40:24;10.22;60.59
74946;HTU21D;63509;45.250;38.102;2023-04-03T00:42:56;10.24;60.62
74946;HTU21D;63509;45.250;38.102;2023-04-03T00:45:28;10.27;60.71
74946;HTU21D;63509;45.250;38.102;2023-04-03T00:47:55;10.28;60.79
74946;HTU21D;63509;45.250;38.102;2023-04-03T00:50:22;10.30;60.93
74946;HTU21D;63509;45.250;38.102;2023-04-03T00:52:49;10.33;60.96
74946;HTU21D;63509;45.250;38.102;2023-04-03T00:55:16;10.36;61.01
74946;HTU21D;63509;45.250;38.102;2023-04-03T00:57:42;10.37;61.06
74946;HTU21D;63509;45.250;38.102;2023-04-03T01:00:13;10.38;61.02
74946;HTU21D;63509;45.250;38.102;2023-04-03T01:02:40;10.39;61.17
74946;HTU21D;63509;45.250;38.102;2023-04-03T01:05:12;10.39;61.27
74946;HTU21D;63509;45.250;38.102;2023-04-03T01:07:39;10.39;61.43
74946;HTU21D;63509;45.250;38.102;2023-04-03T01:10:11;10.38;61.39
74946;HTU21D;63509;45.250;38.102;2023-04-03T01:12:42;10.40;61.54
74946;HTU21D;63509;45.250;38.102;2023-04-03T01:15:12;10.40;61.54
74946;HTU21D;63509;45.250;38.102;2023-04-03T01:17:44;10.41;61.62
74946;HTU21D;63509;45.250;38.102;2023-04-03T01:25:42;10.45;61.69
74946;HTU21D;63509;45.250;38.102;2023-04-03T01:28:16;10.48;61.76
74946;HTU21D;63509;45.250;38.102;2023-04-03T01:33:14;10.48;61.99
74946;HTU21D;63509;45.250;38.102;2023-04-03T01:35:40;10.46;62.03
74946;HTU21D;63509;45.250;38.102;2023-04-03T01:38:07;10.48;62.31
74946;HTU21D;63509;45.250;38.102;2023-04-03T01:40:32;10.46;62.34
74946;HTU21D;63509;45.250;38.102;2023-04-03T01:42:59;10.46;62.43
74946;HTU21D;63509;45.250;38.102;2023-04-03T01:45:25;10.48;62.52
74946;HTU21D;63509;45.250;38.102;2023-04-03T01:47:51;10.49;62.64
74946;HTU21D;63509;45.250;38.102;2023-04-03T01:50:17;10.50;62.72
74946;HTU21D;63509;45.250;38.102;2023-04-03T01:52:44;10.49;62.76
74946;HTU21D;63509;45.250;38.102;2023-04-03T01:55:10;10.52;62.88
74946;HTU21D;63509;45.250;38.102;2023-04-03T01:57:36;10.54;62.96
74946;HTU21D;63509;45.250;38.102;2023-04-03T02:00:02;10.55;63.09
74946;HTU21D;63509;45.250;38.102;2023-04-03T02:02:38;10.56;63.11
74946;HTU21D;63509;45.250;38.102;2023-04-03T02:05:05;10.57;63.23
74946;HTU21D;63509;45.250;38.102;2023-04-03T02:07:31;10.57;63.24
74946;HTU21D;63509;45.250;38.102;2023-04-03T02:09:58;10.58;63.26
74946;HTU21D;63509;45.250;38.102;2023-04-03T02:12:23;10.58;63.41
74946;HTU21D;63509;45.250;38.102;2023-04-03T02:14:50;10.57;63.46
74946;HTU21D;63509;45.250;38.102;2023-04-03T02:17:16;10.58;63.56
74946;HTU21D;63509;45.250;38.102;2023-04-03T02:19:42;10.58;63.66
74946;HTU21D;63509;45.250;38.102;2023-04-03T02:22:08;10.59;63.76
74946;HTU21D;63509;45.250;38.102;2023-04-03T02:24:35;10.62;63.78
74946;HTU21D;63509;45.250;38.102;2023-04-03T02:27:00;10.62;63.93
74946;HTU21D;63509;45.250;38.102;2023-04-03T02:29:27;10.63;64.09
74946;HTU21D;63509;45.250;38.102;2023-04-03T02:31:53;10.66;64.25
74946;HTU21D;63509;45.250;38.102;2023-04-03T02:34:20;10.68;64.33
74946;HTU21D;63509;45.250;38.102;2023-04-03T02:36:47;10.69;64.43
74946;HTU21D;63509;45.250;38.102;2023-04-03T02:39:14;10.72;64.52
74946;HTU21D;63509;45.250;38.102;2023-04-03T02:41:40;10.77;64.61
74946;HTU21D;63509;45.250;38.102;2023-04-03T02:44:13;10.78;64.68
74946;HTU21D;63509;45.250;38.102;2023-04-03T02:46:39;10.83;64.75
74946;HTU21D;63509;45.250;38.102;2023-04-03T02:49:05;10.85;64.85
74946;HTU21D;63509;45.250;38.102;2023-04-03T02:51:32;10.90;64.88
74946;HTU21D;63509;45.250;38.102;2023-04-03T02:53:58;10.93;65.00
74946;HTU21D;63509;45.250;38.102;2023-04-03T02:56:28;10.94;64.98
74946;HTU21D;63509;45.250;38.102;2023-04-03T02:58:54;10.95;65.08
74946;HTU21D;63509;45.250;38.102;2023-04-03T03:01:20;10.97;65.11
74946;HTU21D;63509;45.250;38.102;2023-04-03T03:03:46;10.98;65.17
74946;HTU21D;63509;45.250;38.102;2023-04-03T03:06:14;10.99;65.31
74946;HTU21D;63509;45.250;38.102;2023-04-03T03:08:41;10.98;65.34
74946;HTU21D;63509;45.250;38.102;2023-04-03T03:11:07;10.98;65.48
74946;HTU21D;63509;45.250;38.102;2023-04-03T03:13:34;10.99;65.55
74946;HTU21D;63509;45.250;38.102;2023-04-03T03:16:00;10.98;65.64
74946;HTU21D;63509;45.250;38.102;2023-04-03T03:18:27;10.99;65.72
74946;HTU21D;63509;45.250;38.102;2023-04-03T03:20:55;10.99;65.92
74946;HTU21D;63509;45.250;38.102;2023-04-03T03:23:23;11.00;66.07
74946;HTU21D;63509;45.250;38.102;2023-04-03T03:25:49;11.00;66.11
74946;HTU21D;63509;45.250;38.102;2023-04-03T03:28:15;11.02;66.20
74946;HTU21D;63509;45.250;38.102;2023-04-03T03:30:41;11.04;66.21
74946;HTU21D;63509;45.250;38.102;2023-04-03T03:33:07;11.05;66.31
74946;HTU21D;63509;45.250;38.102;2023-04-03T03:35:33;11.07;66.39
74946;HTU21D;63509;45.250;38.102;2023-04-03T03:37:59;11.07;66.43
74946;HTU21D;63509;45.250;38.102;2023-04-03T03:40:26;11.10;66.49
74946;HTU21D;63509;45.250;38.102;2023-04-03T03:42:52;11.11;66.56
74946;HTU21D;63509;45.250;38.102;2023-04-03T03:45:18;11.14;66.73
74946;HTU21D;63509;45.250;38.102;2023-04-03T03:47:44;11.16;66.79
74946;HTU21D;63509;45.250;38.102;2023-04-03T03:50:11;11.19;66.86
74946;HTU21D;63509;45.250;38.102;2023-04-03T03:52:37;11.23;67.01
74946;HTU21D;63509;45.250;38.102;2023-04-03T03:55:04;11.26;67.02
74946;HTU21D;63509;45.250;38.102;2023-04-03T03:57:31;11.30;67.07
74946;HTU21D;63509;45.250;38.102;2023-04-03T03:59:58;11.36;67.19
74946;HTU21D;63509;45.250;38.102;2023-04-03T04:02:24;11.38;67.17
74946;HTU21D;63509;45.250;38.102;2023-04-03T04:04:52;11.43;67.26
74946;HTU21D;63509;45.250;38.102;2023-04-03T04:07:18;11.48;67.33
74946;HTU21D;63509;45.250;38.102;2023-04-03T04:09:44;11.53;67.36
74946;HTU21D;63509;45.250;38.102;2023-04-03T04:12:10;11.56;67.39
74946;HTU21D;63509;45.250;38.102;2023-04-03T04:14:37;11.61;67.48
74946;HTU21D;63509;45.250;38.102;2023-04-03T04:17:06;11.63;67.50
74946;HTU21D;63509;45.250;38.102;2023-04-03T04:19:32;11.69;67.54
74946;HTU21D;63509;45.250;38.102;2023-04-03T04:21:59;11.73;67.60
74946;HTU21D;63509;45.250;38.102;2023-04-03T04:24:25;11.78;67.74
74946;HTU21D;63509;45.250;38.102;2023-04-03T04:26:53;11.83;67.79
74946;HTU21D;63509;45.250;38.102;2023-04-03T04:29:20;11.87;67.80
74946;HTU21D;63509;45.250;38.102;2023-04-03T04:31:49;11.90;67.84
74946;HTU21D;63509;45.250;38.102;2023-04-03T04:34:15;11.93;67.97
74946;HTU21D;63509;45.250;38.102;2023-04-03T04:36:42;11.96;67.98
74946;HTU21D;63509;45.250;38.102;2023-04-03T04:39:08;12.01;68.04
74946;HTU21D;63509;45.250;38.102;2023-04-03T04:41:34;12.04;68.02
74946;HTU21D;63509;45.250;38.102;2023-04-03T04:44:02;12.08;68.04
74946;HTU21D;63509;45.250;38.102;2023-04-03T04:46:29;12.13;68.05
74946;HTU21D;63509;45.250;38.102;2023-04-03T04:48:58;12.15;67.97
74946;HTU21D;63509;45.250;38.102;2023-04-03T04:51:27;12.18;67.95
74946;HTU21D;63509;45.250;38.102;2023-04-03T04:53:53;12.20;68.02
74946;HTU21D;63509;45.250;38.102;2023-04-03T04:56:20;12.23;68.04
74946;HTU21D;63509;45.250;38.102;2023-04-03T04:58:47;12.26;68.02
74946;HTU21D;63509;45.250;38.102;2023-04-03T05:01:15;12.29;68.00
74946;HTU21D;63509;45.250;38.102;2023-04-03T05:03:50;12.30;68.00
74946;HTU21D;63509;45.250;38.102;2023-04-03T05:06:17;12.32;67.97
74946;HTU21D;63509;45.250;38.102;2023-04-03T05:08:44;12.34;67.94
74946;HTU21D;63509;45.250;38.102;2023-04-03T05:11:10;12.34;68.01
74946;HTU21D;63509;45.250;38.102;2023-04-03T05:13:37;12.35;68.01
74946;HTU21D;63509;45.250;38.102;2023-04-03T05:16:04;12.35;68.01
74946;HTU21D;63509;45.250;38.102;2023-04-03T05:18:31;12.36;67.98
74946;HTU21D;63509;45.250;38.102;2023-04-03T05:21:01;12.36;68.05
74946;HTU21D;63509;45.250;38.102;2023-04-03T05:23:27;12.36;68.07
74946;HTU21D;63509;45.250;38.102;2023-04-03T05:25:54;12.35;68.14
74946;HTU21D;63509;45.250;38.102;2023-04-03T05:28:21;12.35;68.22
74946;HTU21D;63509;45.250;38.102;2023-04-03T05:30:56;12.35;68.10
74946;HTU21D;63509;45.250;38.102;2023-04-03T05:33:25;12.34;68.23
74946;HTU21D;63509;45.250;38.102;2023-04-03T05:35:54;12.35;68.21
74946;HTU21D;63509;45.250;38.102;2023-04-03T05:38:25;12.37;68.28
74946;HTU21D;63509;45.250;38.102;2023-04-03T05:40:53;12.38;68.25
74946;HTU21D;63509;45.250;38.102;2023-04-03T05:43:18;12.43;68.36
74946;HTU21D;63509;45.250;38.102;2023-04-03T05:45:45;12.50;68.46
74946;HTU21D;63509;45.250;38.102;2023-04-03T05:48:13;12.59;68.38
74946;HTU21D;63509;45.250;38.102;2023-04-03T05:50:39;12.66;68.42
74946;HTU21D;63509;45.250;38.102;2023-04-03T05:53:21;12.79;68.20
74946;HTU21D;63509;45.250;38.102;2023-04-03T05:55:48;12.90;68.22
74946;HTU21D;63509;45.250;38.102;2023-04-03T05:58:14;13.02;68.23
74946;HTU21D;63509;45.250;38.102;2023-04-03T06:00:42;13.18;68.17
74946;HTU21D;63509;45.250;38.102;2023-04-03T06:03:08;13.35;68.06
74946;HTU21D;63509;45.250;38.102;2023-04-03T06:05:34;13.52;67.74
74946;HTU21D;63509;45.250;38.102;2023-04-03T06:08:02;13.63;67.43
74946;HTU21D;63509;45.250;38.102;2023-04-03T06:10:30;13.68;67.17
74946;HTU21D;63509;45.250;38.102;2023-04-03T06:12:56;13.70;66.93
74946;HTU21D;63509;45.250;38.102;2023-04-03T06:15:22;13.68;66.76
74946;HTU21D;63509;45.250;38.102;2023-04-03T06:17:49;13.69;66.71
74946;HTU21D;63509;45.250;38.102;2023-04-03T06:20:16;13.68;66.65
74946;HTU21D;63509;45.250;38.102;2023-04-03T06:22:42;13.71;66.65
74946;HTU21D;63509;45.250;38.102;2023-04-03T06:25:08;13.77;66.61
74946;HTU21D;63509;45.250;38.102;2023-04-03T06:27:35;13.83;66.56
74946;HTU21D;63509;45.250;38.102;2023-04-03T06:30:01;13.92;66.45
74946;HTU21D;63509;45.250;38.102;2023-04-03T06:32:27;13.99;66.31
74946;HTU21D;63509;45.250;38.102;2023-04-03T06:34:53;14.07;66.20
74946;HTU21D;63509;45.250;38.102;2023-04-03T06:37:22;14.17;65.95
74946;HTU21D;63509;45.250;38.102;2023-04-03T06:39:48;14.19;65.75
74946;HTU21D;63509;45.250;38.102;2023-04-03T06:42:14;14.25;65.78
74946;HTU21D;63509;45.250;38.102;2023-04-03T06:44:52;14.34;65.58
74946;HTU21D;63509;45.250;38.102;2023-04-03T06:47:18;14.42;65.47
74946;HTU21D;63509;45.250;38.102;2023-04-03T06:49:45;14.57;65.53
74946;HTU21D;63509;45.250;38.102;2023-04-03T06:52:11;14.78;65.44
74946;HTU21D;63509;45.250;38.102;2023-04-03T06:54:41;15.06;65.33
74946;HTU21D;63509;45.250;38.102;2023-04-03T06:57:07;15.34;64.98
74946;HTU21D;63509;45.250;38.102;2023-04-03T06:59:34;15.65;64.47
74946;HTU21D;63509;45.250;38.102;2023-04-03T07:02:01;15.88;63.84
74946;HTU21D;63509;45.250;38.102;2023-04-03T07:04:27;16.06;63.30
74946;HTU21D;63509;45.250;38.102;2023-04-03T07:06:53;16.18;62.87
74946;HTU21D;63509;45.250;38.102;2023-04-03T07:09:19;16.28;62.65
74946;HTU21D;63509;45.250;38.102;2023-04-03T07:11:45;16.41;62.63
74946;HTU21D;63509;45.250;38.102;2023-04-03T07:14:11;16.56;62.21
74946;HTU21D;63509;45.250;38.102;2023-04-03T07:16:37;16.71;61.90
74946;HTU21D;63509;45.250;38.102;2023-04-03T07:19:03;16.82;61.46
74946;HTU21D;63509;45.250;38.102;2023-04-03T07:21:29;16.94;61.15
74946;HTU21D;63509;45.250;38.102;2023-04-03T07:23:55;17.05;60.74
74946;HTU21D;63509;45.250;38.102;2023-04-03T07:26:22;17.11;60.29
74946;HTU21D;63509;45.250;38.102;2023-04-03T07:28:49;17.15;60.00
74946;HTU21D;63509;45.250;38.102;2023-04-03T07:31:16;17.15;59.98
74946;HTU21D;63509;45.250;38.102;2023-04-03T07:33:43;17.16;59.70
74946;HTU21D;63509;45.250;38.102;2023-04-03T07:36:15;17.18;59.54
74946;HTU21D;63509;45.250;38.102;2023-04-03T07:38:42;17.14;59.09
74946;HTU21D;63509;45.250;38.102;2023-04-03T07:41:14;17.11;59.02
74946;HTU21D;63509;45.250;38.102;2023-04-03T07:43:41;17.09;58.97
74946;HTU21D;63509;45.250;38.102;2023-04-03T07:46:07;17.09;58.74
74946;HTU21D;63509;45.250;38.102;2023-04-03T07:48:35;17.14;58.48
74946;HTU21D;63509;45.250;38.102;2023-04-03T07:51:02;17.18;58.24
74946;HTU21D;63509;45.250;38.102;2023-04-03T07:53:29;17.26;58.17
74946;HTU21D;63509;45.250;38.102;2023-04-03T07:55:57;17.43;58.17
74946;HTU21D;63509;45.250;38.102;2023-04-03T07:58:23;17.62;58.45
74946;HTU21D;63509;45.250;38.102;2023-04-03T08:00:50;17.82;57.83
74946;HTU21D;63509;45.250;38.102;2023-04-03T08:03:16;18.02;56.84
74946;HTU21D;63509;45.250;38.102;2023-04-03T08:05:45;18.21;56.89
74946;HTU21D;63509;45.250;38.102;2023-04-03T08:08:14;18.46;56.40
74946;HTU21D;63509;45.250;38.102;2023-04-03T08:10:40;18.67;56.03
74946;HTU21D;63509;45.250;38.102;2023-04-03T08:13:08;18.87;55.52
74946;HTU21D;63509;45.250;38.102;2023-04-03T08:15:34;19.09;55.28
74946;HTU21D;63509;45.250;38.102;2023-04-03T08:18:01;19.28;54.52
74946;HTU21D;63509;45.250;38.102;2023-04-03T08:20:27;19.38;53.76
74946;HTU21D;63509;45.250;38.102;2023-04-03T08:22:54;19.44;53.72
74946;HTU21D;63509;45.250;38.102;2023-04-03T08:25:20;19.54;53.44
74946;HTU21D;63509;45.250;38.102;2023-04-03T08:27:46;19.67;53.46
74946;HTU21D;63509;45.250;38.102;2023-04-03T08:30:12;19.82;53.06
74946;HTU21D;63509;45.250;38.102;2023-04-03T08:32:39;19.94;52.72
74946;HTU21D;63509;45.250;38.102;2023-04-03T08:35:07;20.03;52.47
74946;HTU21D;63509;45.250;38.102;2023-04-03T08:37:37;20.14;52.48
74946;HTU21D;63509;45.250;38.102;2023-04-03T08:40:06;20.28;52.00
74946;HTU21D;63509;45.250;38.102;2023-04-03T08:42:54;20.41;52.40
74946;HTU21D;63509;45.250;38.102;2023-04-03T08:50:41;20.51;50.94
74946;HTU21D;63509;45.250;38.102;2023-04-03T08:53:14;20.50;51.01
74946;HTU21D;63509;45.250;38.102;2023-04-03T08:55:49;20.40;51.00
74946;HTU21D;63509;45.250;38.102;2023-04-03T08:58:21;20.20;50.95
74946;HTU21D;63509;45.250;38.102;2023-04-03T09:01:05;20.09;51.35
74946;HTU21D;63509;45.250;38.102;2023-04-03T09:03:34;20.00;50.99
74946;HTU21D;63509;45.250;38.102;2023-04-03T09:06:11;20.04;51.42
74946;HTU21D;63509;45.250;38.102;2023-04-03T09:08:46;20.17;51.33
74946;HTU21D;63509;45.250;38.102;2023-04-03T09:11:36;20.29;51.43
74946;HTU21D;63509;45.250;38.102;2023-04-03T09:17:26;20.73;50.91
74946;HTU21D;63509;45.250;38.102;2023-04-03T09:22:31;20.91;51.30
74946;HTU21D;63509;45.250;38.102;2023-04-03T09:25:12;20.95;50.66
74946;HTU21D;63509;45.250;38.102;2023-04-03T09:27:39;21.02;50.07
74946;HTU21D;63509;45.250;38.102;2023-04-03T09:30:08;21.04;49.72
74946;HTU21D;63509;45.250;38.102;2023-04-03T09:32:38;21.04;49.59
74946;HTU21D;63509;45.250;38.102;2023-04-03T09:35:18;21.05;49.82
74946;HTU21D;63509;45.250;38.102;2023-04-03T09:37:46;21.06;50.45
74946;HTU21D;63509;45.250;38.102;2023-04-03T09:42:53;21.09;49.07
74946;HTU21D;63509;45.250;38.102;2023-04-03T09:45:27;21.10;50.22
74946;HTU21D;63509;45.250;38.102;2023-04-03T09:48:13;21.17;49.81
74946;HTU21D;63509;45.250;38.102;2023-04-03T09:53:37;21.29;49.17
74946;HTU21D;63509;45.250;38.102;2023-04-03T09:59:12;21.35;49.04
74946;HTU21D;63509;45.250;38.102;2023-04-03T10:01:42;21.35;48.21
74946;HTU21D;63509;45.250;38.102;2023-04-03T10:04:16;21.37;48.13
74946;HTU21D;63509;45.250;38.102;2023-04-03T10:06:48;21.39;48.23
74946;HTU21D;63509;45.250;38.102;2023-04-03T10:09:28;21.36;48.05
74946;HTU21D;63509;45.250;38.102;2023-04-03T10:12:00;21.31;47.90
74946;HTU21D;63509;45.250;38.102;2023-04-03T10:14:28;21.32;47.49
74946;HTU21D;63509;45.250;38.102;2023-04-03T10:23:12;21.01;47.92
74946;HTU21D;63509;45.250;38.102;2023-04-03T10:25:43;20.90;47.89
74946;HTU21D;63509;45.250;38.102;2023-04-03T10:30:59;20.87;48.37
74946;HTU21D;63509;45.250;38.102;2023-04-03T10:42:01;20.59;48.45
74946;HTU21D;63509;45.250;38.102;2023-04-03T10:44:40;20.48;48.38
74946;HTU21D;63509;45.250;38.102;2023-04-03T10:47:20;20.41;48.65
74946;HTU21D;63509;45.250;38.102;2023-04-03T10:53:04;20.25;48.99
74946;HTU21D;63509;45.250;38.102;2023-04-03T10:58:46;20.09;49.18
74946;HTU21D;63509;45.250;38.102;2023-04-03T11:01:18;19.98;49.25
74946;HTU21D;63509;45.250;38.102;2023-04-03T11:03:50;19.89;49.50
74946;HTU21D;63509;45.250;38.102;2023-04-03T11:06:20;19.83;49.72
74946;HTU21D;63509;45.250;38.102;2023-04-03T11:09:02;19.75;49.76
74946;HTU21D;63509;45.250;38.102;2023-04-03T11:11:35;19.74;49.96
74946;HTU21D;63509;45.250;38.102;2023-04-03T11:14:47;19.70;50.16
74946;HTU21D;63509;45.250;38.102;2023-04-03T11:19:39;19.66;50.25
74946;HTU21D;63509;45.250;38.102;2023-04-03T11:22:23;19.66;50.19
74946;HTU21D;63509;45.250;38.102;2023-04-03T11:25:23;19.61;50.14
74946;HTU21D;63509;45.250;38.102;2023-04-03T11:28:04;19.54;50.30
74946;HTU21D;63509;45.250;38.102;2023-04-03T11:30:55;19.54;50.34
74946;HTU21D;63509;45.250;38.102;2023-04-03T11:36:09;19.45;50.16
74946;HTU21D;63509;45.250;38.102;2023-04-03T11:38:42;19.37;50.35
74946;HTU21D;63509;45.250;38.102;2023-04-03T11:41:10;19.32;50.31
74946;HTU21D;63509;45.250;38.102;2023-04-03T11:44:00;19.30;50.54
74946;HTU21D;63509;45.250;38.102;2023-04-03T11:46:54;19.29;50.66
74946;HTU21D;63509;45.250;38.102;2023-04-03T11:52:10;19.15;50.76
74946;HTU21D;63509;45.250;38.102;2023-04-03T11:54:44;19.15;50.93
74946;HTU21D;63509;45.250;38.102;2023-04-03T11:57:46;19.18;50.73
74946;HTU21D;63509;45.250;38.102;2023-04-03T12:29:25;18.72;51.26
74946;HTU21D;63509;45.250;38.102;2023-04-03T12:40:51;18.48;51.66
74946;HTU21D;63509;45.250;38.102;2023-04-03T12:46:13;18.32;51.95
74946;HTU21D;63509;45.250;38.102;2023-04-03T12:51:40;18.15;52.14
74946;HTU21D;63509;45.250;38.102;2023-04-03T12:54:18;18.09;52.22
74946;HTU21D;63509;45.250;38.102;2023-04-03T12:56:47;18.04;52.42
74946;HTU21D;63509;45.250;38.102;2023-04-03T12:59:24;17.96;52.45
74946;HTU21D;63509;45.250;38.102;2023-04-03T13:01:59;17.90;52.45
74946;HTU21D;63509;45.250;38.102;2023-04-03T13:04:27;17.80;52.71
74946;HTU21D;63509;45.250;38.102;2023-04-03T13:06:54;17.76;52.88
74946;HTU21D;63509;45.250;38.102;2023-04-03T13:09:31;17.73;52.85
74946;HTU21D;63509;45.250;38.102;2023-04-03T13:12:03;17.67;52.91
74946;HTU21D;63509;45.250;38.102;2023-04-03T13:14:34;17.65;53.01
74946;HTU21D;63509;45.250;38.102;2023-04-03T13:17:11;17.64;53.04
74946;HTU21D;63509;45.250;38.102;2023-04-03T13:19:39;17.61;53.21
74946;HTU21D;63509;45.250;38.102;2023-04-03T13:22:16;17.52;53.22
74946;HTU21D;63509;45.250;38.102;2023-04-03T13:24:46;17.44;53.52
74946;HTU21D;63509;45.250;38.102;2023-04-03T13:27:13;17.37;53.61
74946;HTU21D;63509;45.250;38.102;2023-04-03T13:29:39;17.29;53.85
74946;HTU21D;63509;45.250;38.102;2023-04-03T13:32:06;17.24;53.97
74946;HTU21D;63509;45.250;38.102;2023-04-03T13:34:40;17.20;53.96
74946;HTU21D;63509;45.250;38.102;2023-04-03T13:37:26;17.15;53.95
74946;HTU21D;63509;45.250;38.102;2023-04-03T13:42:37;17.00;54.44
74946;HTU21D;63509;45.250;38.102;2023-04-03T13:45:19;16.96;54.52
74946;HTU21D;63509;45.250;38.102;2023-04-03T13:47:47;16.89;54.90
74946;HTU21D;63509;45.250;38.102;2023-04-03T13:50:25;16.82;54.85
74946;HTU21D;63509;45.250;38.102;2023-04-03T13:52:55;16.74;55.33
74946;HTU21D;63509;45.250;38.102;2023-04-03T13:55:25;16.69;55.43
74946;HTU21D;63509;45.250;38.102;2023-04-03T13:58:00;16.62;55.44
74946;HTU21D;63509;45.250;38.102;2023-04-03T14:02:58;16.43;55.90
74946;HTU21D;63509;45.250;38.102;2023-04-03T14:05:24;16.35;56.15
74946;HTU21D;63509;45.250;38.102;2023-04-03T14:07:53;16.28;56.39
74946;HTU21D;63509;45.250;38.102;2023-04-03T14:10:20;16.18;56.61
74946;HTU21D;63509;45.250;38.102;2023-04-03T14:12:47;16.10;56.94
74946;HTU21D;63509;45.250;38.102;2023-04-03T14:15:22;16.01;57.03
74946;HTU21D;63509;45.250;38.102;2023-04-03T14:17:50;15.96;57.31
74946;HTU21D;63509;45.250;38.102;2023-04-03T14:20:20;15.93;57.45
74946;HTU21D;63509;45.250;38.102;2023-04-03T14:22:48;15.89;57.63
74946;HTU21D;63509;45.250;38.102;2023-04-03T14:25:15;15.84;57.71
74946;HTU21D;63509;45.250;38.102;2023-04-03T14:27:46;15.77;57.85
74946;HTU21D;63509;45.250;38.102;2023-04-03T14:30:25;15.66;57.67
74946;HTU21D;63509;45.250;38.102;2023-04-03T14:32:52;15.54;58.15
74946;HTU21D;63509;45.250;38.102;2023-04-03T14:35:19;15.48;58.38
74946;HTU21D;63509;45.250;38.102;2023-04-03T14:37:47;15.39;58.58
74946;HTU21D;63509;45.250;38.102;2023-04-03T14:40:17;15.31;58.68
74946;HTU21D;63509;45.250;38.102;2023-04-03T14:42:44;15.25;58.93
74946;HTU21D;63509;45.250;38.102;2023-04-03T14:45:11;15.19;59.06
74946;HTU21D;63509;45.250;38.102;2023-04-03T14:47:56;15.14;58.81
74946;HTU21D;63509;45.250;38.102;2023-04-03T14:50:25;15.08;59.24
74946;HTU21D;63509;45.250;38.102;2023-04-03T14:52:55;15.02;59.32
74946;HTU21D;63509;45.250;38.102;2023-04-03T14:55:23;14.97;59.51
74946;HTU21D;63509;45.250;38.102;2023-04-03T14:57:49;14.92;59.64
74946;HTU21D;63509;45.250;38.102;2023-04-03T15:00:19;14.87;59.70
74946;HTU21D;63509;45.250;38.102;2023-04-03T15:02:46;14.82;59.80
74946;HTU21D;63509;45.250;38.102;2023-04-03T15:05:13;14.77;59.96
74946;HTU21D;63509;45.250;38.102;2023-04-03T15:07:48;14.70;59.83
74946;HTU21D;63509;45.250;38.102;2023-04-03T15:10:28;14.66;59.82
74946;HTU21D;63509;45.250;38.102;2023-04-03T15:12:56;14.62;60.25
74946;HTU21D;63509;45.250;38.102;2023-04-03T15:15:24;14.58;60.42
74946;HTU21D;63509;45.250;38.102;2023-04-03T15:17:52;14.55;60.44
74946;HTU21D;63509;45.250;38.102;2023-04-03T15:20:21;14.51;60.51
74946;HTU21D;63509;45.250;38.102;2023-04-03T15:22:48;14.45;60.66
74946;HTU21D;63509;45.250;38.102;2023-04-03T15:25:14;14.40;60.85
74946;HTU21D;63509;45.250;38.102;2023-04-03T15:27:41;14.37;60.94
74946;HTU21D;63509;45.250;38.102;2023-04-03T15:30:11;14.32;61.01
74946;HTU21D;63509;45.250;38.102;2023-04-03T15:32:39;14.27;61.06
74946;HTU21D;63509;45.250;38.102;2023-04-03T15:35:06;14.26;61.12
74946;HTU21D;63509;45.250;38.102;2023-04-03T15:37:32;14.23;61.16
74946;HTU21D;63509;45.250;38.102;2023-04-03T15:39:58;14.18;61.25
74946;HTU21D;63509;45.250;38.102;2023-04-03T15:42:24;14.12;61.33
74946;HTU21D;63509;45.250;38.102;2023-04-03T15:44:51;14.08;61.43
74946;HTU21D;63509;45.250;38.102;2023-04-03T15:47:17;14.04;61.48
74946;HTU21D;63509;45.250;38.102;2023-04-03T15:49:43;13.98;61.60
74946;HTU21D;63509;45.250;38.102;2023-04-03T15:52:10;13.94;61.66
74946;HTU21D;63509;45.250;38.102;2023-04-03T15:54:36;13.91;61.78
74946;HTU21D;63509;45.250;38.102;2023-04-03T15:57:02;13.88;61.90
74946;HTU21D;63509;45.250;38.102;2023-04-03T15:59:28;13.82;62.00
74946;HTU21D;63509;45.250;38.102;2023-04-03T16:01:56;13.76;62.08
74946;HTU21D;63509;45.250;38.102;2023-04-03T16:04:23;13.70;62.19
74946;HTU21D;63509;45.250;38.102;2023-04-03T16:06:50;13.66;62.30
74946;HTU21D;63509;45.250;38.102;2023-04-03T16:09:16;13.63;62.35
74946;HTU21D;63509;45.250;38.102;2023-04-03T16:11:42;13.61;62.44
74946;HTU21D;63509;45.250;38.102;2023-04-03T16:14:09;13.55;62.49
74946;HTU21D;63509;45.250;38.102;2023-04-03T16:16:35;13.53;62.79
74946;HTU21D;63509;45.250;38.102;2023-04-03T16:19:03;13.50;62.77
74946;HTU21D;63509;45.250;38.102;2023-04-03T16:21:30;13.48;62.83
74946;HTU21D;63509;45.250;38.102;2023-04-03T16:23:58;13.48;63.21
74946;HTU21D;63509;45.250;38.102;2023-04-03T16:26:25;13.51;63.11
74946;HTU21D;63509;45.250;38.102;2023-04-03T16:28:52;13.49;63.15
74946;HTU21D;63509;45.250;38.102;2023-04-03T16:31:19;13.45;63.27
74946;HTU21D;63509;45.250;38.102;2023-04-03T16:33:46;13.39;63.34
74946;HTU21D;63509;45.250;38.102;2023-04-03T16:36:11;13.35;63.49
74946;HTU21D;63509;45.250;38.102;2023-04-03T16:38:38;13.31;63.57
74946;HTU21D;63509;45.250;38.102;2023-04-03T16:41:03;13.26;63.68
74946;HTU21D;63509;45.250;38.102;2023-04-03T16:43:34;13.22;63.67
74946;HTU21D;63509;45.250;38.102;2023-04-03T16:46:01;13.18;63.90
74946;HTU21D;63509;45.250;38.102;2023-04-03T16:48:28;13.12;64.02
74946;HTU21D;63509;45.250;38.102;2023-04-03T16:50:55;13.07;64.10
74946;HTU21D;63509;45.250;38.102;2023-04-03T16:53:22;13.04;64.24
74946;HTU21D;63509;45.250;38.102;2023-04-03T16:55:49;13.00;64.34
74946;HTU21D;63509;45.250;38.102;2023-04-03T16:58:15;12.96;64.41
74946;HTU21D;63509;45.250;38.102;2023-04-03T17:00:42;12.92;64.57
74946;HTU21D;63509;45.250;38.102;2023-04-03T17:03:08;12.88;64.66